Time;durP1;ratioP1;P1;durP2;ratioP2;P2;SDS_P1;SDS_P2;PMS_P1;PMS_P2;Temp;Humidity;BMP_temperature;BMP_pressure;BME280_temperature;BME280_humidity;BME280_pressure;Samples;Min_cycle;Max_cycle;Signal;HPM_P1;HPM_P2
2022/09/06 00:00:19;;;;;;;9.48;9.18;;;18.20;99.90;;;;;;5014839;28;20233;-81
2022/09/06 00:02:47;;;;;;;9.60;9.30;;;18.20;99.90;;;;;;5019101;28;20234;-81
2022/09/06 00:05:16;;;;;;;9.45;9.15;;;18.20;99.90;;;;;;5024567;28;20228;-82
2022/09/06 00:07:54;;;;;;;9.35;9.05;;;18.10;99.90;;;;;;5015226;28;20263;-81
2022/09/06 00:10:24;;;;;;;9.50;9.20;;;18.10;99.90;;;;;;5020375;28;20248;-81
2022/09/06 00:12:53;;;;;;;9.38;9.07;;;18.10;99.90;;;;;;5021062;28;20229;-81
2022/09/06 00:15:22;;;;;;;9.27;8.98;;;18.10;99.90;;;;;;5020675;28;20228;-81
2022/09/06 00:17:52;;;;;;;9.27;8.98;;;18.10;99.90;;;;;;5009328;28;20245;-82
2022/09/06 00:20:21;;;;;;;9.50;9.20;;;18.00;99.90;;;;;;5007049;28;20296;-82
2022/09/06 00:22:59;;;;;;;9.60;9.30;;;18.00;99.90;;;;;;5006165;28;20276;-81
2022/09/06 00:25:29;;;;;;;9.40;9.10;;;18.00;99.90;;;;;;4997985;28;20225;-81
2022/09/06 00:27:59;;;;;;;9.50;9.20;;;18.00;99.90;;;;;;5004337;28;20264;-82
2022/09/06 00:30:28;;;;;;;9.50;9.20;;;18.00;99.90;;;;;;5005088;28;20316;-82
2022/09/06 00:32:57;;;;;;;9.55;9.25;;;18.00;99.90;;;;;;5004505;28;20237;-82
2022/09/06 00:35:27;;;;;;;9.30;9.00;;;17.90;99.90;;;;;;4994312;28;20284;-81
2022/09/06 00:40:45;;;;;;;9.50;9.20;;;17.90;99.90;;;;;;5001843;28;20249;-81
2022/09/06 00:43:14;;;;;;;9.80;9.50;;;17.90;99.90;;;;;;5001748;28;21113;-81
2022/09/06 00:45:45;;;;;;;9.48;9.18;;;17.80;99.90;;;;;;5001610;28;20332;-81
2022/09/06 00:48:14;;;;;;;9.70;9.40;;;17.80;99.90;;;;;;5001467;28;20331;-81
2022/09/06 00:50:43;;;;;;;9.40;9.10;;;17.70;99.90;;;;;;5002250;28;20312;-81
2022/09/06 00:53:23;;;;;;;9.60;9.30;;;17.70;99.90;;;;;;5001694;28;20252;-81
2022/09/06 00:55:50;;;;;;;9.60;9.30;;;17.70;99.90;;;;;;5002106;28;20235;-81
2022/09/06 00:58:21;;;;;;;9.70;9.40;;;17.70;99.90;;;;;;5001500;28;20296;-81
2022/09/06 01:00:49;;;;;;;9.50;9.20;;;17.70;99.90;;;;;;5003525;28;20233;-81
2022/09/06 01:03:19;;;;;;;9.88;9.57;;;17.70;99.90;;;;;;5003194;28;20340;-81
2022/09/06 01:05:59;;;;;;;9.63;9.32;;;17.60;99.90;;;;;;5002580;28;20264;-82
2022/09/06 01:08:45;;;;;;;9.55;9.25;;;17.70;99.90;;;;;;5002846;28;20327;-81
2022/09/06 01:11:33;;;;;;;9.52;9.23;;;17.60;99.90;;;;;;5002479;28;20228;-80
2022/09/06 01:14:12;;;;;;;9.30;9.00;;;17.70;99.90;;;;;;5001508;28;20263;-81
2022/09/06 01:16:48;;;;;;;9.40;9.10;;;17.60;99.90;;;;;;5001959;28;20348;-81
2022/09/06 01:20:10;;;;;;;9.20;8.90;;;17.60;99.90;;;;;;5002496;28;20256;-81
2022/09/06 01:23:14;;;;;;;9.50;9.20;;;17.50;99.90;;;;;;4987799;28;20244;-81
2022/09/06 01:26:11;;;;;;;9.50;9.20;;;17.50;99.90;;;;;;4983155;28;20225;-81
2022/09/06 01:28:49;;;;;;;9.15;8.85;;;17.50;99.90;;;;;;5019235;28;20220;-80
2022/09/06 01:31:27;;;;;;;9.40;9.10;;;17.50;99.90;;;;;;5019903;28;20252;-81
2022/09/06 01:34:23;;;;;;;9.15;8.85;;;17.40;99.90;;;;;;5020435;28;20248;-81
2022/09/06 01:37:02;;;;;;;9.13;8.82;;;17.50;99.90;;;;;;5019509;28;20248;-81
2022/09/06 01:39:33;;;;;;;9.27;8.98;;;17.50;99.90;;;;;;5019867;28;20215;-80
2022/09/06 01:42:07;;;;;;;9.50;9.20;;;17.50;99.90;;;;;;5019794;28;20228;-80
2022/09/06 01:44:47;;;;;;;9.52;9.23;;;17.50;99.90;;;;;;5019163;28;20247;-81
2022/09/06 01:47:26;;;;;;;9.48;9.18;;;17.50;99.90;;;;;;5018544;28;20228;-81
2022/09/06 01:50:20;;;;;;;9.63;9.32;;;17.50;99.90;;;;;;5018636;28;20228;-81
2022/09/06 01:52:59;;;;;;;9.32;9.02;;;17.40;99.90;;;;;;4988291;28;20241;-81
2022/09/06 01:55:37;;;;;;;9.32;9.02;;;17.40;99.90;;;;;;4982847;28;20225;-82
2022/09/06 01:58:33;;;;;;;9.23;8.93;;;17.40;99.90;;;;;;4972947;28;20782;-81
2022/09/06 02:01:12;;;;;;;9.45;9.15;;;17.40;99.90;;;;;;4963973;28;20227;-82
2022/09/06 02:03:55;;;;;;;9.50;9.20;;;17.40;99.90;;;;;;4963777;28;20248;-82
2022/09/06 02:06:28;;;;;;;9.48;9.18;;;17.40;99.90;;;;;;4963788;28;20317;-81
2022/09/06 02:09:07;;;;;;;9.18;8.88;;;17.40;99.90;;;;;;4963766;28;20238;-81
2022/09/06 02:11:44;;;;;;;9.45;9.15;;;17.40;99.90;;;;;;4963887;28;20317;-82
2022/09/06 02:14:25;;;;;;;9.20;8.90;;;17.40;99.90;;;;;;4964235;28;20317;-82
2022/09/06 02:17:01;;;;;;;9.07;8.82;;;17.40;99.90;;;;;;4964019;28;20329;-83
2022/09/06 02:19:38;;;;;;;9.27;8.98;;;17.40;99.90;;;;;;4964817;28;20313;-82
2022/09/06 02:22:11;;;;;;;9.20;8.90;;;17.40;99.90;;;;;;4967151;28;20242;-80
2022/09/06 02:24:47;;;;;;;9.40;9.10;;;17.40;99.90;;;;;;4975204;28;20234;-81
2022/09/06 02:27:16;;;;;;;9.40;9.10;;;17.40;99.90;;;;;;4979607;28;20217;-80
2022/09/06 02:29:46;;;;;;;9.18;8.88;;;17.40;99.90;;;;;;4982095;28;20236;-82
2022/09/06 02:32:23;;;;;;;9.30;9.00;;;17.40;99.90;;;;;;4981926;28;20203;-81
2022/09/06 02:34:53;;;;;;;9.00;8.80;;;17.30;99.90;;;;;;4996464;28;20205;-81
2022/09/06 02:37:24;;;;;;;9.40;9.10;;;17.30;99.90;;;;;;5000819;28;20249;-81
2022/09/06 02:39:54;;;;;;;9.48;9.18;;;17.30;99.90;;;;;;5000956;28;20233;-81
2022/09/06 02:42:23;;;;;;;9.40;9.10;;;17.30;99.90;;;;;;4998958;28;20224;-81
2022/09/06 02:44:52;;;;;;;9.35;9.05;;;17.30;99.90;;;;;;4999897;28;20213;-79
2022/09/06 02:47:33;;;;;;;9.60;9.30;;;17.20;99.90;;;;;;5001095;28;20210;-80
2022/09/06 02:50:00;;;;;;;9.60;9.30;;;17.20;99.90;;;;;;5001442;28;20201;-81
2022/09/06 02:52:29;;;;;;;9.50;9.20;;;17.20;99.90;;;;;;5000415;28;20252;-81
2022/09/06 02:54:59;;;;;;;9.32;9.02;;;17.20;99.90;;;;;;5000295;28;20240;-80
2022/09/06 02:57:29;;;;;;;9.32;9.02;;;17.20;99.90;;;;;;4999432;28;20242;-81
2022/09/06 02:59:58;;;;;;;9.48;9.18;;;17.10;99.90;;;;;;5000241;28;20226;-81
2022/09/06 03:02:30;;;;;;;9.50;9.20;;;17.10;99.90;;;;;;4991214;28;20255;-82
2022/09/06 03:04:58;;;;;;;9.40;9.10;;;17.00;99.90;;;;;;4981939;28;20229;-82
2022/09/06 03:07:27;;;;;;;9.50;9.20;;;17.00;99.90;;;;;;4982268;28;20679;-82
2022/09/06 03:09:56;;;;;;;8.88;8.68;;;16.90;99.90;;;;;;4981298;28;20257;-82
2022/09/06 03:12:26;;;;;;;9.38;9.07;;;16.90;99.90;;;;;;4981167;28;20267;-82
2022/09/06 03:14:55;;;;;;;9.38;9.07;;;16.90;99.90;;;;;;4980494;28;20237;-81
2022/09/06 03:17:24;;;;;;;9.40;9.10;;;16.80;99.90;;;;;;4984267;28;20287;-81
2022/09/06 03:19:56;;;;;;;9.20;8.90;;;16.80;99.90;;;;;;4991977;28;20339;-82
2022/09/06 03:22:23;;;;;;;9.40;9.10;;;16.80;99.90;;;;;;4991051;28;20289;-81
2022/09/06 03:24:52;;;;;;;9.20;8.90;;;16.80;99.90;;;;;;4986028;28;20262;-81
2022/09/06 03:27:23;;;;;;;9.10;8.80;;;16.70;99.90;;;;;;4985533;28;20328;-82
2022/09/06 03:29:51;;;;;;;9.10;8.80;;;16.70;99.90;;;;;;4984260;28;20245;-81
2022/09/06 03:32:21;;;;;;;8.70;8.50;;;16.70;99.90;;;;;;4984086;28;20289;-81
2022/09/06 03:34:50;;;;;;;8.82;8.63;;;16.70;99.90;;;;;;4983232;28;20244;-82
2022/09/06 03:37:25;;;;;;;8.90;8.70;;;16.70;99.90;;;;;;4983262;28;20257;-82
2022/09/06 03:39:53;;;;;;;8.80;8.60;;;16.70;99.90;;;;;;4985832;28;20229;-82
2022/09/06 03:42:21;;;;;;;9.30;9.00;;;16.70;99.90;;;;;;4985333;28;20237;-82
2022/09/06 03:44:51;;;;;;;9.38;9.07;;;16.70;99.90;;;;;;4984891;28;20230;-82
2022/09/06 03:47:19;;;;;;;8.98;8.77;;;16.70;99.90;;;;;;4983841;28;20297;-81
2022/09/06 03:49:46;;;;;;;8.85;8.65;;;16.70;99.90;;;;;;4984123;28;20222;-82
2022/09/06 03:52:16;;;;;;;8.50;8.30;;;16.70;99.90;;;;;;4983751;28;20230;-82
2022/09/06 03:54:48;;;;;;;8.30;8.10;;;16.70;99.90;;;;;;4983742;28;20320;-82
2022/09/06 03:57:15;;;;;;;8.55;8.35;;;16.70;99.90;;;;;;4983891;28;20241;-82
2022/09/06 03:59:44;;;;;;;8.68;8.48;;;16.60;99.90;;;;;;4984385;28;20225;-81
2022/09/06 04:02:14;;;;;;;8.65;8.45;;;16.60;99.90;;;;;;4983537;28;20257;-82
2022/09/06 04:04:43;;;;;;;8.80;8.60;;;16.70;99.90;;;;;;4983592;28;20257;-82
2022/09/06 04:07:12;;;;;;;8.98;8.77;;;16.70;99.90;;;;;;4984505;28;20233;-82
2022/09/06 04:09:42;;;;;;;8.90;8.70;;;16.60;99.90;;;;;;4993508;28;20313;-82
2022/09/06 04:12:21;;;;;;;9.20;8.90;;;16.60;99.90;;;;;;4987072;28;20268;-82
2022/09/06 04:14:50;;;;;;;9.05;8.77;;;16.60;99.90;;;;;;4987492;28;20252;-82
2022/09/06 04:17:20;;;;;;;8.85;8.65;;;16.60;99.90;;;;;;4996186;28;20217;-81
2022/09/06 04:19:50;;;;;;;9.20;8.90;;;16.60;99.90;;;;;;5002104;28;20213;-80
2022/09/06 04:22:18;;;;;;;9.52;9.23;;;16.70;99.90;;;;;;5000144;28;20226;-82
2022/09/06 04:24:48;;;;;;;9.32;9.02;;;16.70;99.90;;;;;;4988345;28;20238;-82
2022/09/06 04:27:26;;;;;;;9.70;9.40;;;16.60;99.90;;;;;;4987700;28;20237;-82
2022/09/06 04:29:55;;;;;;;9.60;9.30;;;16.70;99.90;;;;;;4986625;28;20264;-82
2022/09/06 04:32:25;;;;;;;9.15;8.85;;;16.70;99.90;;;;;;4986341;28;20257;-82
2022/09/06 04:34:54;;;;;;;9.57;9.27;;;16.70;99.90;;;;;;4985102;28;20257;-82
2022/09/06 04:37:26;;;;;;;9.20;8.90;;;16.70;99.90;;;;;;4984904;28;20248;-82
2022/09/06 04:40:04;;;;;;;9.40;9.10;;;16.70;99.90;;;;;;4984857;28;20240;-82
2022/09/06 04:42:42;;;;;;;9.20;8.90;;;16.70;99.90;;;;;;4969746;28;20222;-81
2022/09/06 04:45:11;;;;;;;9.40;9.10;;;16.80;99.90;;;;;;4973111;28;20242;-82
2022/09/06 04:47:41;;;;;;;9.40;9.10;;;16.80;99.90;;;;;;4963899;28;20234;-82
2022/09/06 04:50:10;;;;;;;9.45;9.15;;;16.70;99.90;;;;;;4964219;28;20249;-82
2022/09/06 04:52:40;;;;;;;9.30;9.00;;;16.70;99.90;;;;;;4979699;28;20253;-82
2022/09/06 04:55:09;;;;;;;9.48;9.18;;;16.80;99.90;;;;;;4982038;28;20701;-81
2022/09/06 04:57:47;;;;;;;8.80;8.60;;;16.80;99.90;;;;;;4981829;28;20241;-80
2022/09/06 05:00:16;;;;;;;9.27;8.98;;;16.80;99.90;;;;;;4981977;28;20261;-81
2022/09/06 05:02:47;;;;;;;9.35;9.05;;;16.90;99.90;;;;;;4982046;28;20295;-81
2022/09/06 05:05:16;;;;;;;9.23;8.93;;;16.90;99.90;;;;;;4981585;28;20282;-81
2022/09/06 05:07:45;;;;;;;9.32;9.02;;;16.80;99.90;;;;;;4981657;28;20279;-81
2022/09/06 05:10:15;;;;;;;9.40;9.10;;;16.80;99.90;;;;;;4981911;28;20265;-81
2022/09/06 05:12:55;;;;;;;9.35;9.05;;;16.80;99.90;;;;;;4981765;28;20250;-81
2022/09/06 05:15:23;;;;;;;9.50;9.20;;;16.80;99.90;;;;;;4975139;28;20225;-80
2022/09/06 05:17:52;;;;;;;9.80;9.50;;;16.90;99.90;;;;;;4973159;28;20234;-80
2022/09/06 05:20:21;;;;;;;10.00;9.70;;;16.90;99.90;;;;;;4973544;28;20276;-81
2022/09/06 05:22:53;;;;;;;8.75;8.55;;;16.90;99.90;;;;;;4973629;28;20287;-81
2022/09/06 05:25:21;;;;;;;8.60;8.40;;;16.90;99.90;;;;;;4970013;28;20441;-83
2022/09/06 05:27:52;;;;;;;8.80;8.60;;;16.90;99.90;;;;;;4970378;28;20443;-82
2022/09/06 05:30:20;;;;;;;8.80;8.60;;;16.90;99.90;;;;;;4968818;28;20351;-83
2022/09/06 05:32:48;;;;;;;9.00;8.80;;;16.90;99.90;;;;;;4969964;28;20293;-83
2022/09/06 05:35:17;;;;;;;8.70;8.50;;;16.90;99.90;;;;;;4975652;28;20281;-82
2022/09/06 05:37:48;;;;;;;8.85;8.65;;;16.80;99.90;;;;;;4981933;28;20242;-82
2022/09/06 05:40:17;;;;;;;8.70;8.50;;;16.90;99.90;;;;;;4975774;28;20265;-83
2022/09/06 05:42:46;;;;;;;8.55;8.35;;;16.90;99.90;;;;;;4963472;28;20294;-83
2022/09/06 05:45:16;;;;;;;8.35;8.15;;;17.00;99.90;;;;;;4963211;28;20329;-86
2022/09/06 05:47:45;;;;;;;8.20;8.00;;;17.00;99.90;;;;;;4965218;28;20246;-83
2022/09/06 05:50:14;;;;;;;8.10;7.90;;;17.10;99.90;;;;;;4965177;28;20257;-82
2022/09/06 05:52:45;;;;;;;8.30;8.10;;;17.20;99.90;;;;;;4970415;28;20245;-82
2022/09/06 05:55:13;;;;;;;8.20;8.00;;;17.20;99.90;;;;;;4965948;28;20265;-82
2022/09/06 06:00:12;;;;;;;8.25;8.05;;;17.20;99.90;;;;;;5080321;28;20293;-83
2022/09/06 06:02:52;;;;;;;8.38;8.18;;;17.10;99.90;;;;;;5081040;28;20225;-83
2022/09/06 06:05:19;;;;;;;8.50;8.30;;;17.20;99.90;;;;;;5082769;28;20260;-82
2022/09/06 06:07:49;;;;;;;8.50;8.30;;;17.20;99.90;;;;;;5095676;28;20249;-81
2022/09/06 06:10:18;;;;;;;8.43;8.23;;;17.30;99.90;;;;;;5070828;28;20233;-81
2022/09/06 06:12:48;;;;;;;8.50;8.30;;;17.40;99.90;;;;;;5070541;28;20269;-81
2022/09/06 06:15:18;;;;;;;8.77;8.57;;;17.50;99.90;;;;;;5069583;28;20222;-83
2022/09/06 06:17:49;;;;;;;8.73;8.52;;;17.50;99.90;;;;;;5061882;28;20234;-82
2022/09/06 06:20:17;;;;;;;9.40;9.10;;;17.70;99.90;;;;;;5061461;28;20727;-83
2022/09/06 06:22:46;;;;;;;9.20;8.90;;;17.80;99.90;;;;;;5061492;28;20234;-84
2022/09/06 06:25:20;;;;;;;8.70;8.50;;;17.90;99.90;;;;;;5072025;28;20323;-84
2022/09/06 06:27:53;;;;;;;9.30;9.00;;;18.00;99.90;;;;;;5081292;28;20226;-82
2022/09/06 06:30:23;;;;;;;9.30;9.00;;;18.20;99.90;;;;;;5081673;28;20237;-81
2022/09/06 06:33:02;;;;;;;8.93;8.73;;;18.30;99.90;;;;;;5081654;28;20218;-82
2022/09/06 06:35:31;;;;;;;8.95;8.75;;;18.40;99.90;;;;;;5081205;28;20219;-83
2022/09/06 06:38:04;;;;;;;9.00;8.80;;;18.50;99.90;;;;;;5081555;28;20273;-81
2022/09/06 06:40:32;;;;;;;8.73;8.52;;;18.50;99.90;;;;;;5082328;28;20296;-82
2022/09/06 06:43:01;;;;;;;8.70;8.50;;;18.50;99.90;;;;;;5081697;28;20252;-81
2022/09/06 06:45:31;;;;;;;8.88;8.68;;;18.50;99.90;;;;;;5092570;28;20296;-82
2022/09/06 06:48:09;;;;;;;8.85;8.65;;;18.50;99.90;;;;;;5078972;28;20295;-84
2022/09/06 06:50:38;;;;;;;8.57;8.38;;;18.60;99.90;;;;;;5071023;28;20258;-84
2022/09/06 06:53:09;;;;;;;8.90;8.70;;;18.60;99.90;;;;;;5069871;28;20242;-81
2022/09/06 06:55:37;;;;;;;9.00;8.80;;;18.60;99.90;;;;;;5060589;28;20227;-82
2022/09/06 06:58:07;;;;;;;8.50;8.30;;;18.70;99.90;;;;;;5054910;28;20269;-84
2022/09/06 07:00:36;;;;;;;8.55;8.35;;;18.80;99.90;;;;;;5042343;28;20289;-84
2022/09/06 07:03:15;;;;;;;9.20;8.90;;;18.90;99.90;;;;;;5041397;28;20235;-88
2022/09/06 07:05:46;;;;;;;8.90;8.70;;;19.00;99.90;;;;;;5039625;28;20227;-86
2022/09/06 07:08:14;;;;;;;9.20;8.90;;;19.20;99.90;;;;;;5039245;28;20235;-86
2022/09/06 07:10:53;;;;;;;8.90;8.70;;;19.30;99.90;;;;;;5047670;28;20235;-89
2022/09/06 07:13:21;;;;;;;8.77;8.57;;;19.50;99.90;;;;;;5042055;28;20227;-89
2022/09/06 07:15:50;;;;;;;8.88;8.68;;;19.70;99.90;;;;;;5042682;28;20701;-88
2022/09/06 07:18:28;;;;;;;8.80;8.60;;;19.70;99.90;;;;;;5042854;28;20267;-89
2022/09/06 07:20:57;;;;;;;8.93;8.73;;;19.80;99.90;;;;;;5051791;28;20233;-87
2022/09/06 07:23:27;;;;;;;9.18;8.88;;;19.90;99.90;;;;;;5043468;28;20271;-88
2022/09/06 07:25:58;;;;;;;9.07;8.82;;;19.90;99.90;;;;;;5049520;28;20227;-87
2022/09/06 07:28:28;;;;;;;9.57;9.27;;;19.90;99.90;;;;;;5044768;28;20231;-87
2022/09/06 07:30:56;;;;;;;9.30;9.00;;;20.00;99.90;;;;;;5043865;28;20282;-87
2022/09/06 07:33:35;;;;;;;8.93;8.73;;;19.90;99.90;;;;;;5061281;28;20245;-87
2022/09/06 07:36:06;;;;;;;9.10;8.80;;;19.90;99.90;;;;;;5051968;28;20299;-84
2022/09/06 07:38:59;;;;;;;9.50;9.20;;;19.90;99.90;;;;;;5053630;28;20268;-88
2022/09/06 07:41:28;;;;;;;9.50;9.20;;;20.10;99.90;;;;;;5053596;28;20294;-89
2022/09/06 07:44:08;;;;;;;9.25;8.95;;;20.30;99.90;;;;;;5054400;28;20227;-89
2022/09/06 07:46:36;;;;;;;9.30;9.00;;;20.40;99.90;;;;;;5058753;28;20231;-86
2022/09/06 07:49:24;;;;;;;9.02;8.77;;;20.40;99.90;;;;;;5057427;28;20266;-88
2022/09/06 07:51:55;;;;;;;9.20;8.90;;;20.40;99.90;;;;;;5062415;28;20321;-87
2022/09/06 07:54:31;;;;;;;9.60;9.30;;;20.50;99.90;;;;;;5061930;28;20234;-88
2022/09/06 07:59:56;;;;;;;9.40;9.10;;;20.60;99.90;;;;;;5061035;28;20242;-87
2022/09/06 08:02:26;;;;;;;9.80;9.50;;;20.70;99.90;;;;;;5061771;28;20210;-87
2022/09/06 08:04:57;;;;;;;9.75;9.45;;;20.70;99.90;;;;;;5060734;28;20247;-87
2022/09/06 08:10:13;;;;;;;9.80;9.50;;;20.90;99.90;;;;;;5051426;28;20235;-86
2022/09/06 08:12:41;;;;;;;9.75;9.45;;;20.90;99.90;;;;;;5062267;28;20231;-87
2022/09/06 08:15:10;;;;;;;9.70;9.40;;;21.00;99.90;;;;;;5060764;28;20262;-87
2022/09/06 08:17:40;;;;;;;9.93;9.63;;;21.10;99.90;;;;;;5061586;28;20230;-87
2022/09/06 08:20:17;;;;;;;10.02;9.73;;;21.20;99.90;;;;;;5061889;28;20280;-87
2022/09/06 08:22:47;;;;;;;9.90;9.60;;;21.20;99.90;;;;;;5061182;28;20691;-87
2022/09/06 08:25:16;;;;;;;10.10;9.80;;;21.30;99.90;;;;;;5060564;28;20235;-87
2022/09/06 08:27:47;;;;;;;9.90;9.60;;;21.40;99.90;;;;;;5062067;28;20234;-86
2022/09/06 08:30:16;;;;;;;10.30;10.00;;;21.50;99.90;;;;;;5061832;28;20545;-86
2022/09/06 08:32:45;;;;;;;10.07;9.77;;;21.50;99.90;;;;;;5062649;28;20265;-86
2022/09/06 08:35:23;;;;;;;10.10;9.80;;;21.60;99.90;;;;;;5056994;28;20322;-85
2022/09/06 08:37:54;;;;;;;10.10;9.80;;;21.60;99.90;;;;;;5051278;28;20231;-87
2022/09/06 08:40:24;;;;;;;10.10;9.80;;;21.70;99.90;;;;;;5060708;28;20238;-86
2022/09/06 08:42:53;;;;;;;10.20;9.90;;;21.70;99.90;;;;;;5060503;28;20237;-86
2022/09/06 08:45:23;;;;;;;10.20;9.90;;;21.90;99.90;;;;;;5054886;28;20235;-86
2022/09/06 08:47:53;;;;;;;10.13;9.82;;;22.00;99.90;;;;;;5060914;28;20308;-87
2022/09/06 08:50:31;;;;;;;10.10;9.80;;;22.10;99.90;;;;;;5061405;28;20285;-87
2022/09/06 08:53:09;;;;;;;9.98;9.68;;;22.30;99.90;;;;;;5061612;28;20252;-87
2022/09/06 08:55:41;;;;;;;10.00;9.70;;;22.40;99.90;;;;;;5062268;28;20244;-86
2022/09/06 08:58:44;;;;;;;10.20;9.90;;;22.50;99.90;;;;;;5061796;28;20324;-82
2022/09/06 09:01:24;;;;;;;10.32;10.02;;;22.80;99.90;;;;;;5063437;28;20333;-83
2022/09/06 09:03:59;;;;;;;10.15;9.85;;;23.00;99.90;;;;;;5063511;28;20219;-84
2022/09/06 09:06:55;;;;;;;10.07;9.77;;;23.00;99.90;;;;;;5060060;28;20313;-83
2022/09/06 09:09:25;;;;;;;10.20;9.90;;;23.30;99.90;;;;;;5061121;28;20239;-83
2022/09/06 09:11:54;;;;;;;10.30;10.00;;;23.50;99.90;;;;;;5063232;28;20238;-87
2022/09/06 09:14:34;;;;;;;10.48;10.18;;;23.70;99.90;;;;;;5063034;28;20242;-88
2022/09/06 09:17:21;;;;;;;10.45;10.15;;;23.90;99.90;;;;;;5062990;28;20222;-85
2022/09/06 09:23:48;;;;;;;10.80;10.50;;;24.40;99.90;;;;;;5026521;28;20290;-88
2022/09/06 09:31:59;;;;;;;10.40;10.10;;;24.50;99.90;;;;;;5048402;28;20234;-86
2022/09/06 09:34:36;;;;;;;10.60;10.30;;;24.60;99.90;;;;;;5039873;28;20241;-86
2022/09/06 09:40:02;;;;;;;10.40;10.10;;;24.80;99.90;;;;;;5110976;22;20245;-85
2022/09/06 09:42:39;;;;;;;10.45;10.15;;;25.00;99.90;;;;;;5100335;28;20260;-85
2022/09/06 09:45:29;;;;;;;10.50;10.20;;;25.40;99.90;;;;;;5100575;28;20237;-85
2022/09/06 09:47:59;;;;;;;10.50;10.20;;;25.50;99.90;;;;;;5081841;28;20325;-85
2022/09/06 09:53:25;;;;;;;10.35;10.05;;;26.00;99.90;;;;;;5092064;28;20230;-88
2022/09/06 09:55:59;;;;;;;10.65;10.35;;;26.20;99.90;;;;;;5082761;28;20226;-85
2022/09/06 09:59:23;;;;;;;10.38;10.07;;;26.30;99.90;;;;;;5082015;28;20326;-86
2022/09/06 10:05:26;;;;;;;10.50;10.20;;;26.10;99.90;;;;;;5078912;28;20237;-85
2022/09/06 10:10:47;;;;;;;10.40;10.10;;;26.40;99.90;;;;;;5081944;28;20237;-82
2022/09/06 10:13:32;;;;;;;10.43;10.13;;;26.50;99.90;;;;;;5084379;28;20237;-84
2022/09/06 10:16:33;;;;;;;10.90;10.60;;;26.60;99.90;;;;;;5081261;28;20225;-85
2022/09/06 10:22:54;;;;;;;10.68;10.38;;;26.70;99.90;;;;;;5069610;28;20218;-86
2022/09/06 10:25:46;;;;;;;10.90;10.60;;;26.60;99.90;;;;;;5080924;28;20238;-84
2022/09/06 10:28:35;;;;;;;10.90;10.60;;;26.50;99.90;;;;;;5081554;28;20325;-84
2022/09/06 10:31:46;;;;;;;10.52;10.23;;;26.60;99.90;;;;;;5082186;28;20256;-81
2022/09/06 10:34:50;;;;;;;10.50;10.20;;;26.80;99.90;;;;;;5080847;28;20226;-87
2022/09/06 10:37:39;;;;;;;10.77;10.48;;;27.10;99.90;;;;;;5079779;28;20265;-84
2022/09/06 10:40:27;;;;;;;10.90;10.60;;;27.50;99.90;;;;;;5080662;28;20273;-84
2022/09/06 10:43:04;;;;;;;11.10;10.80;;;27.70;99.90;;;;;;5079447;28;20312;-87
2022/09/06 10:45:51;;;;;;;11.20;10.90;;;27.80;99.90;;;;;;5058288;28;20322;-85
2022/09/06 10:48:33;;;;;;;11.10;10.80;;;27.90;99.90;;;;;;5063094;28;20242;-84
2022/09/06 10:51:17;;;;;;;11.38;11.07;;;28.00;99.90;;;;;;5063092;28;20230;-86
2022/09/06 10:54:06;;;;;;;11.30;11.00;;;28.20;99.90;;;;;;5063081;28;20231;-85
2022/09/06 10:56:43;;;;;;;11.27;10.98;;;28.30;99.90;;;;;;5063429;28;20257;-81
2022/09/06 10:59:20;;;;;;;11.10;10.80;;;28.50;99.90;;;;;;5063274;28;20234;-82
2022/09/06 11:02:16;;;;;;;11.00;10.70;;;28.80;99.90;;;;;;5063718;28;20262;-82
2022/09/06 11:04:55;;;;;;;11.30;11.00;;;28.90;99.90;;;;;;5070106;28;20234;-81
2022/09/06 11:07:34;;;;;;;11.30;11.00;;;29.20;99.90;;;;;;5075112;28;20285;-81
2022/09/06 11:10:09;;;;;;;11.18;10.88;;;29.20;99.90;;;;;;5084159;28;20249;-87
2022/09/06 11:12:48;;;;;;;11.15;10.85;;;29.20;99.90;;;;;;5092772;28;20217;-86
2022/09/06 11:15:21;;;;;;;11.20;10.90;;;29.20;99.90;;;;;;5087994;28;20285;-87
2022/09/06 11:18:17;;;;;;;11.10;10.80;;;29.50;99.90;;;;;;5081947;28;20214;-89
2022/09/06 11:36:12;;;;;;;;;;;;;;;;;;;;;
2022/09/06 11:39:46;;;;;;;11.02;10.73;;;31.10;99.90;;;;;;5005167;28;20233;-86
2022/09/06 11:54:34;;;;;;;11.00;10.70;;;31.20;99.90;;;;;;4945604;28;20733;-91
2022/09/06 12:00:07;;;;;;;10.95;10.65;;;31.50;99.90;;;;;;5130997;22;20223;-78
2022/09/06 12:02:37;;;;;;;10.90;10.60;;;31.60;99.90;;;;;;5091976;28;20225;-78
2022/09/06 12:05:26;;;;;;;11.10;10.80;;;31.70;99.90;;;;;;5082598;28;20234;-78
2022/09/06 12:08:30;;;;;;;11.10;10.80;;;32.00;99.90;;;;;;5085612;28;20238;-79
2022/09/06 12:11:22;;;;;;;10.63;10.32;;;32.00;99.90;;;;;;5090991;28;20241;-81
2022/09/06 12:14:03;;;;;;;10.90;10.60;;;32.30;99.90;;;;;;5089459;28;20226;-79
2022/09/06 12:17:26;;;;;;;10.60;10.30;;;32.70;99.90;;;;;;5087854;28;20238;-81
2022/09/06 12:20:05;;;;;;;10.55;10.25;;;32.50;99.90;;;;;;5073727;28;20257;-78
2022/09/06 12:22:58;;;;;;;10.75;10.45;;;32.20;99.90;;;;;;5082281;28;20234;-80
2022/09/06 12:26:01;;;;;;;10.93;10.63;;;31.60;99.90;;;;;;5078593;28;20239;-78
2022/09/06 12:28:42;;;;;;;10.73;10.43;;;31.70;99.90;;;;;;5078427;28;20281;-80
2022/09/06 12:31:35;;;;;;;10.73;10.43;;;31.80;99.90;;;;;;5079146;28;20244;-79
2022/09/06 12:34:16;;;;;;;10.38;10.07;;;32.40;99.90;;;;;;5086524;28;20226;-79
2022/09/06 12:37:05;;;;;;;10.50;10.20;;;32.60;99.90;;;;;;5084902;28;20228;-80
2022/09/06 12:39:34;;;;;;;10.50;10.20;;;32.60;99.90;;;;;;5117765;28;20209;-78
2022/09/06 12:42:12;;;;;;;10.40;10.10;;;32.00;99.90;;;;;;5109775;28;20234;-79
2022/09/06 12:44:44;;;;;;;10.30;10.00;;;32.10;99.90;;;;;;5097715;28;20249;-77
2022/09/06 12:47:17;;;;;;;10.20;9.90;;;31.90;99.90;;;;;;5100091;28;20238;-79
2022/09/06 12:49:50;;;;;;;10.20;9.90;;;32.00;99.90;;;;;;5096721;28;20265;-79
2022/09/06 12:52:20;;;;;;;10.70;10.40;;;32.20;99.90;;;;;;5091352;28;20230;-79
2022/09/06 12:54:50;;;;;;;11.00;10.70;;;32.30;99.90;;;;;;5089152;28;20772;-80
2022/09/06 12:57:26;;;;;;;10.68;10.38;;;32.50;99.90;;;;;;5087476;28;20314;-80
2022/09/06 12:59:55;;;;;;;10.60;10.30;;;32.70;99.90;;;;;;5087575;28;20228;-81
2022/09/06 13:02:34;;;;;;;11.18;10.88;;;32.80;99.90;;;;;;5086560;28;20226;-81
2022/09/06 13:05:12;;;;;;;11.32;11.02;;;32.50;99.90;;;;;;5085012;28;20237;-80
2022/09/06 13:07:43;;;;;;;11.23;10.93;;;32.60;99.90;;;;;;5085738;28;20236;-81
2022/09/06 13:10:13;;;;;;;11.32;11.02;;;32.40;99.90;;;;;;5085819;28;20293;-80
2022/09/06 13:12:51;;;;;;;11.30;11.00;;;32.20;99.90;;;;;;5086777;28;20225;-80
2022/09/06 13:15:29;;;;;;;10.80;10.50;;;32.50;99.90;;;;;;5085615;28;20241;-80
2022/09/06 13:18:25;;;;;;;10.70;10.40;;;32.50;99.90;;;;;;5086279;28;20283;-80
2022/09/06 13:21:01;;;;;;;10.70;10.40;;;32.20;99.90;;;;;;5084899;28;20242;-79
2022/09/06 13:23:31;;;;;;;10.63;10.32;;;32.20;99.90;;;;;;5088994;28;20230;-81
2022/09/06 13:26:00;;;;;;;10.80;10.50;;;32.40;99.90;;;;;;5091479;28;20241;-83
2022/09/06 13:28:40;;;;;;;11.40;11.10;;;33.00;99.90;;;;;;5091190;28;20325;-81
2022/09/06 13:31:11;;;;;;;11.45;11.15;;;33.70;99.90;;;;;;5089182;28;20312;-82
2022/09/06 13:33:40;;;;;;;10.90;10.60;;;34.20;99.90;;;;;;5087782;28;20234;-82
2022/09/06 13:36:28;;;;;;;10.95;10.65;;;34.60;99.90;;;;;;5088770;28;20252;-84
2022/09/06 13:38:56;;;;;;;10.80;10.50;;;34.90;99.90;;;;;;5090135;28;20226;-80
2022/09/06 13:41:43;;;;;;;11.00;10.70;;;34.70;99.90;;;;;;5094064;28;20226;-82
2022/09/06 13:44:30;;;;;;;10.75;10.45;;;34.60;99.90;;;;;;5100432;28;20218;-81
2022/09/06 13:46:58;;;;;;;10.68;10.38;;;35.00;99.90;;;;;;5089967;28;20245;-81
2022/09/06 13:49:27;;;;;;;11.02;10.73;;;35.30;99.90;;;;;;5085970;28;20256;-82
2022/09/06 13:51:59;;;;;;;11.20;10.90;;;35.30;99.90;;;;;;5083707;28;20456;-80
2022/09/06 13:54:26;;;;;;;11.10;10.80;;;35.50;99.90;;;;;;5077111;28;20258;-79
2022/09/06 13:56:55;;;;;;;10.88;10.57;;;35.40;99.90;;;;;;5081219;28;20326;-79
2022/09/06 13:59:25;;;;;;;10.95;10.65;;;35.30;99.90;;;;;;5080952;28;20336;-81
2022/09/06 14:02:02;;;;;;;11.63;11.30;;;35.30;99.90;;;;;;5079706;28;20238;-79
2022/09/06 14:04:31;;;;;;;11.40;11.10;;;35.50;99.90;;;;;;5079127;28;20233;-78
2022/09/06 14:07:01;;;;;;;11.23;10.93;;;35.50;99.90;;;;;;5078907;28;20253;-78
2022/09/06 14:09:31;;;;;;;11.38;11.07;;;35.60;99.90;;;;;;5079764;28;20229;-79
2022/09/06 14:11:59;;;;;;;10.93;10.63;;;35.30;99.90;;;;;;5100261;28;20225;-78
2022/09/06 14:14:30;;;;;;;10.82;10.52;;;35.50;99.90;;;;;;5100274;28;20245;-79
2022/09/06 14:16:59;;;;;;;11.07;10.77;;;35.60;99.90;;;;;;5100527;28;20265;-79
2022/09/06 14:19:29;;;;;;;10.80;10.50;;;35.60;99.90;;;;;;5099937;28;20248;-79
2022/09/06 14:21:58;;;;;;;10.82;10.52;;;35.20;99.90;;;;;;5098931;28;20233;-78
2022/09/06 14:24:27;;;;;;;10.95;10.65;;;35.40;99.90;;;;;;5084959;28;20257;-79
2022/09/06 14:26:57;;;;;;;11.10;10.80;;;35.60;99.90;;;;;;5079855;28;20396;-81